Time;durP1;ratioP1;P1;durP2;ratioP2;P2;SDS_P1;SDS_P2;PMS_P1;PMS_P2;Temp;Humidity;BMP_temperature;BMP_pressure;BME280_temperature;BME280_humidity;BME280_pressure;Samples;Min_cycle;Max_cycle;Signal;HPM_P1;HPM_P2
2023/01/31 00:00:11;;;;;;;8.80;1.20;;;;;;;;;;109820;1285;22178;-82
2023/01/31 00:03:22;;;;;;;11.70;1.80;;;;;;;;;;109923;1264;22157;-83
2023/01/31 00:12:54;;;;;;;7.60;1.40;;;;;;;;;;109763;1263;22167;-80
2023/01/31 00:15:23;;;;;;;11.20;1.50;;;;;;;;;;109825;1285;22148;-82
2023/01/31 00:17:52;;;;;;;7.90;1.00;;;;;;;;;;109883;1284;22182;-80
2023/01/31 00:32:02;;;;;;;6.40;0.90;;;;;;;;;;103861;1295;545005;-85
2023/01/31 00:34:45;;;;;;;;;;;;;;;;;;;;;
2023/01/31 00:37:15;;;;;;;9.90;1.20;;;;;;;;;;106176;1288;22600;-86
2023/01/31 00:40:12;;;;;;;11.10;1.30;;;;;;;;;;106283;1288;22624;-89
2023/01/31 00:42:43;;;;;;;10.70;1.20;;;;;;;;;;106533;1281;23132;-88
2023/01/31 00:45:11;;;;;;;11.60;1.30;;;;;;;;;;102712;1279;5363400;-86
2023/01/31 00:47:38;;;;;;;9.80;1.60;;;;;;;;;;106855;1279;23873;-86
2023/01/31 00:50:15;;;;;;;8.30;1.50;;;;;;;;;;106830;1279;22530;-83
2023/01/31 00:53:06;;;;;;;11.60;1.50;;;;;;;;;;106887;1261;22625;-90
2023/01/31 00:55:35;;;;;;;7.50;1.00;;;;;;;;;;106913;1279;24723;-82
2023/01/31 00:58:05;;;;;;;8.20;0.90;;;;;;;;;;106843;1279;22540;-86
2023/01/31 01:00:34;;;;;;;7.40;1.10;;;;;;;;;;106865;1279;25233;-84
2023/01/31 01:03:01;;;;;;;6.40;0.90;;;;;;;;;;106823;1260;22550;-85
2023/01/31 01:05:29;;;;;;;9.60;0.90;;;;;;;;;;106813;1279;22550;-86
2023/01/31 01:07:59;;;;;;;10.70;1.20;;;;;;;;;;106876;1279;24280;-85
2023/01/31 01:10:39;;;;;;;11.40;1.90;;;;;;;;;;106852;1279;24257;-84
2023/01/31 01:13:07;;;;;;;8.50;1.40;;;;;;;;;;106935;1259;22672;-83
2023/01/31 01:15:37;;;;;;;11.70;1.30;;;;;;;;;;106878;1279;22533;-81
2023/01/31 01:18:08;;;;;;;11.00;1.20;;;;;;;;;;106780;1279;22535;-82
2023/01/31 01:20:48;;;;;;;6.60;1.40;;;;;;;;;;106852;1279;22542;-83
2023/01/31 01:23:15;;;;;;;8.40;1.50;;;;;;;;;;106734;1262;22544;-81
2023/01/31 01:25:45;;;;;;;7.60;0.90;;;;;;;;;;106765;1281;25243;-82
2023/01/31 01:28:24;;;;;;;6.30;0.70;;;;;;;;;;106796;1281;24231;-87
2023/01/31 01:31:01;;;;;;;9.60;1.50;;;;;;;;;;106795;1281;22790;-86
2023/01/31 01:33:39;;;;;;;7.00;0.90;;;;;;;;;;106864;1280;22536;-84
2023/01/31 01:36:20;;;;;;;8.50;1.20;;;;;;;;;;106583;1281;24233;-84
2023/01/31 01:38:53;;;;;;;7.40;0.90;;;;;;;;;;106821;1281;25268;-87
2023/01/31 01:41:20;;;;;;;6.30;0.80;;;;;;;;;;106778;1281;22771;-83
2023/01/31 01:43:54;;;;;;;8.20;0.90;;;;;;;;;;106603;1264;24295;-85
2023/01/31 01:46:20;;;;;;;7.10;0.70;;;;;;;;;;106505;1281;25251;-84
2023/01/31 01:49:31;;;;;;;9.10;1.30;;;;;;;;;;106524;1281;25304;-82
2023/01/31 01:52:01;;;;;;;6.60;0.80;;;;;;;;;;106560;1281;21985;-81
2023/01/31 01:55:03;;;;;;;6.50;0.60;;;;;;;;;;106778;1279;24340;-84
2023/01/31 01:57:39;;;;;;;11.40;1.00;;;;;;;;;;106463;1285;24243;-85
2023/01/31 02:00:44;;;;;;;14.70;1.10;;;;;;;;;;106304;1285;24273;-82
2023/01/31 02:03:31;;;;;;;7.40;0.90;;;;;;;;;;105982;1274;25328;-84
2023/01/31 02:06:05;;;;;;;5.20;0.90;;;;;;;;;;105937;1292;22552;-82
2023/01/31 02:08:36;;;;;;;6.30;0.80;;;;;;;;;;105898;1292;23725;-85
2023/01/31 02:11:14;;;;;;;8.30;0.80;;;;;;;;;;105934;1292;22561;-87
2023/01/31 02:13:57;;;;;;;12.50;0.70;;;;;;;;;;105817;1273;25529;-83
2023/01/31 02:17:06;;;;;;;;;;;;;;;;;;;;;
2023/01/31 02:19:52;;;;;;;;;;;;;;;;;;;;;
2023/01/31 02:22:22;;;;;;;6.20;0.70;;;;;;;;;;106072;1289;24211;-83
2023/01/31 02:25:29;;;;;;;7.30;0.90;;;;;;;;;;106025;1290;22609;-83
2023/01/31 02:28:26;;;;;;;8.90;1.00;;;;;;;;;;105957;1272;24234;-85
2023/01/31 02:31:14;;;;;;;14.10;1.50;;;;;;;;;;104514;1288;2332918;-82
2023/01/31 02:34:04;;;;;;;6.40;0.80;;;;;;;;;;106127;1288;22543;-82
2023/01/31 02:36:40;;;;;;;8.00;1.00;;;;;;;;;;106340;1268;24450;-84
2023/01/31 02:39:43;;;;;;;7.40;0.80;;;;;;;;;;106100;1288;22604;-83
2023/01/31 02:42:45;;;;;;;10.00;0.80;;;;;;;;;;106515;1285;22670;-81
2023/01/31 02:45:32;;;;;;;8.70;0.90;;;;;;;;;;106388;1285;25597;-83
2023/01/31 02:48:37;;;;;;;10.60;1.20;;;;;;;;;;106179;1272;22600;-85
2023/01/31 02:51:37;;;;;;;;;;;;;;;;;;;;;
2023/01/31 02:57:37;;;;;;;7.50;0.90;;;;;;;;;;106323;1262;24270;-85
2023/01/31 03:01:30;;;;;;;10.50;0.90;;;;;;;;;;106407;1285;22543;-83
2023/01/31 03:04:32;;;;;;;7.80;0.80;;;;;;;;;;106459;1285;25363;-84
2023/01/31 03:07:25;;;;;;;7.00;0.90;;;;;;;;;;106487;1278;22536;-84
2023/01/31 03:11:18;;;;;;;8.10;1.00;;;;;;;;;;106439;1283;22536;-84
2023/01/31 03:14:04;;;;;;;10.50;1.00;;;;;;;;;;106525;1283;22558;-83
2023/01/31 03:20:14;;;;;;;8.80;1.10;;;;;;;;;;106419;1282;25341;-85
2023/01/31 03:23:21;;;;;;;14.20;1.40;;;;;;;;;;106400;1283;24296;-81
2023/01/31 03:26:11;;;;;;;9.20;1.10;;;;;;;;;;106401;1283;22542;-80
2023/01/31 03:29:22;;;;;;;7.40;0.70;;;;;;;;;;106407;1263;22538;-81
2023/01/31 03:32:50;;;;;;;6.00;1.00;;;;;;;;;;106436;1283;22536;-80
2023/01/31 03:35:25;;;;;;;11.00;1.10;;;;;;;;;;106438;1283;22633;-81
2023/01/31 03:38:39;;;;;;;11.20;1.30;;;;;;;;;;106435;1261;24207;-87
2023/01/31 03:42:27;;;;;;;6.40;0.80;;;;;;;;;;106397;1283;22651;-82
2023/01/31 03:44:44;;;;;;;10.00;1.00;;;;;;;;;;106726;1276;25342;-83
2023/01/31 03:47:25;;;;;;;8.50;1.00;;;;;;;;;;106958;1276;24239;-81
2023/01/31 03:51:01;;;;;;;10.20;1.50;;;;;;;;;;106905;1262;22586;-86
2023/01/31 03:53:41;;;;;;;;;;;;;;;;;;;;;
2023/01/31 03:56:21;;;;;;;8.70;1.10;;;;;;;;;;106436;1283;24235;-83
2023/01/31 03:59:52;;;;;;;6.50;0.80;;;;;;;;;;106445;1261;22616;-81
2023/01/31 04:03:01;;;;;;;;;;;;;;;;;;;;;
2023/01/31 04:06:54;;;;;;;10.70;0.80;;;;;;;;;;106107;1283;22561;-81
2023/01/31 04:09:39;;;;;;;8.20;0.90;;;;;;;;;;105708;1286;24585;-82
2023/01/31 04:13:00;;;;;;;;;;;;;;;;;;;;;
2023/01/31 04:15:32;;;;;;;11.20;1.20;;;;;;;;;;105803;1293;22556;-81
2023/01/31 04:18:18;;;;;;;9.90;1.10;;;;;;;;;;105813;1293;22791;-84
2023/01/31 04:21:09;;;;;;;11.80;1.20;;;;;;;;;;105779;1276;24240;-84
2023/01/31 04:24:53;;;;;;;11.50;1.20;;;;;;;;;;105785;1293;22512;-81
2023/01/31 04:27:45;;;;;;;;;;;;;;;;;;;;;
2023/01/31 04:31:02;;;;;;;7.30;1.00;;;;;;;;;;105049;1299;22570;-84
2023/01/31 04:34:05;;;;;;;10.20;1.10;;;;;;;;;;105279;1299;24256;-79
2023/01/31 04:37:01;;;;;;;10.30;0.90;;;;;;;;;;105302;1299;24231;-80
2023/01/31 04:39:54;;;;;;;8.20;1.10;;;;;;;;;;105248;1279;24876;-86
2023/01/31 04:42:57;;;;;;;8.10;1.50;;;;;;;;;;105430;1294;24417;-81
2023/01/31 04:46:35;;;;;;;9.00;1.10;;;;;;;;;;105819;1289;24211;-79
2023/01/31 04:49:25;;;;;;;7.30;1.20;;;;;;;;;;105700;1295;22565;-81
2023/01/31 04:52:50;;;;;;;9.70;0.70;;;;;;;;;;105687;1277;25306;-83
2023/01/31 04:55:44;;;;;;;7.00;0.80;;;;;;;;;;105655;1295;25971;-82
2023/01/31 04:58:28;;;;;;;5.30;0.90;;;;;;;;;;105706;1295;22553;-83
2023/01/31 05:01:12;;;;;;;;;;;;;;;;;;;;;
2023/01/31 05:04:32;;;;;;;;;;;;;;;;;;;;;
2023/01/31 05:08:25;;;;;;;6.90;0.90;;;;;;;;;;106189;1283;24223;-79
2023/01/31 05:10:59;;;;;;;8.10;0.90;;;;;;;;;;106405;1283;22625;-81
2023/01/31 05:14:17;;;;;;;7.90;1.00;;;;;;;;;;106420;1283;22671;-80
2023/01/31 05:17:06;;;;;;;12.00;1.30;;;;;;;;;;106512;1283;22547;-82
2023/01/31 05:20:28;;;;;;;9.50;1.10;;;;;;;;;;106516;1283;25525;-80
2023/01/31 05:23:52;;;;;;;8.70;0.90;;;;;;;;;;106359;1263;24279;-83
2023/01/31 05:27:01;;;;;;;;;;;;;;;;;;;;;
2023/01/31 05:29:48;;;;;;;5.30;0.70;;;;;;;;;;106851;1276;24939;-80
2023/01/31 05:32:32;;;;;;;6.90;0.80;;;;;;;;;;106854;1259;23924;-82
2023/01/31 05:36:17;;;;;;;7.30;0.60;;;;;;;;;;106878;1276;22559;-83
2023/01/31 05:39:45;;;;;;;9.00;1.10;;;;;;;;;;106880;1276;25291;-79
2023/01/31 05:46:25;;;;;;;;;;;;;;;;;;;;;
2023/01/31 05:49:12;;;;;;;8.20;1.00;;;;;;;;;;105857;1292;25359;-79
2023/01/31 05:52:12;;;;;;;;;;;;;;;;;;;;;
2023/01/31 05:55:44;;;;;;;9.80;1.10;;;;;;;;;;105771;1293;22813;-80
2023/01/31 05:58:26;;;;;;;9.40;1.10;;;;;;;;;;105913;1288;22533;-83
2023/01/31 06:01:53;;;;;;;;;;;;;;;;;;;;;
2023/01/31 06:04:45;;;;;;;6.00;0.80;;;;;;;;;;105951;1274;22550;-78
2023/01/31 06:07:28;;;;;;;;;;;;;;;;;;;;;
2023/01/31 06:14:05;;;;;;;7.40;0.90;;;;;;;;;;105832;1290;25388;-78
2023/01/31 06:16:58;;;;;;;;;;;;;;;;;;;;;
2023/01/31 06:20:08;;;;;;;9.10;1.40;;;;;;;;;;105951;1290;25254;-83
2023/01/31 06:24:01;;;;;;;10.10;1.30;;;;;;;;;;106183;1262;22589;-81
2023/01/31 06:26:30;;;;;;;9.40;1.00;;;;;;;;;;106693;1277;25237;-85
2023/01/31 06:33:11;;;;;;;10.70;2.10;;;;;;;;;;106872;1277;22516;-83
2023/01/31 06:36:06;;;;;;;;;;;;;;;;;;;;;
2023/01/31 06:39:55;;;;;;;11.70;1.40;;;;;;;;;;106785;1277;25309;-79
2023/01/31 06:42:41;;;;;;;12.60;2.00;;;;;;;;;;106871;1278;23157;-82
2023/01/31 06:45:34;;;;;;;10.20;1.80;;;;;;;;;;106816;1277;25291;-83
2023/01/31 06:48:35;;;;;;;;;;;;;;;;;;;;;
2023/01/31 06:51:07;;;;;;;7.80;1.30;;;;;;;;;;106925;1278;22532;-78
2023/01/31 06:54:11;;;;;;;11.40;1.80;;;;;;;;;;107212;1255;22539;-79
2023/01/31 07:00:25;;;;;;;9.50;1.20;;;;;;;;;;106787;1278;24206;-82
2023/01/31 07:03:12;;;;;;;17.60;2.30;;;;;;;;;;106773;1278;24303;-81
2023/01/31 07:05:47;;;;;;;12.80;2.60;;;;;;;;;;106838;1259;25356;-80
2023/01/31 07:08:41;;;;;;;10.00;2.30;;;;;;;;;;106834;1277;22528;-83
2023/01/31 07:11:33;;;;;;;14.10;1.90;;;;;;;;;;106841;1278;24191;-82
2023/01/31 07:14:34;;;;;;;8.50;1.40;;;;;;;;;;106746;1278;23193;-79
2023/01/31 07:17:22;;;;;;;9.50;1.80;;;;;;;;;;106797;1276;22536;-77
2023/01/31 07:20:10;;;;;;;9.20;1.00;;;;;;;;;;106594;1278;22823;-78
2023/01/31 07:23:18;;;;;;;12.40;2.20;;;;;;;;;;106801;1278;25220;-82
2023/01/31 07:26:50;;;;;;;9.70;2.00;;;;;;;;;;106780;1260;23681;-84
2023/01/31 07:29:20;;;;;;;11.90;2.00;;;;;;;;;;106313;1284;22503;-83
2023/01/31 07:32:08;;;;;;;10.10;1.60;;;;;;;;;;106615;1278;22558;-79
2023/01/31 07:35:51;;;;;;;10.20;1.60;;;;;;;;;;106387;1284;22673;-85
2023/01/31 07:39:05;;;;;;;;;;;;;;;;;;;;;
2023/01/31 07:45:42;;;;;;;;;;;;;;;;;;;;;
2023/01/31 07:52:57;;;;;;;;;;;;;;;;;;;;;
2023/01/31 07:55:38;;;;;;;11.30;2.70;;;;;;;;;;104912;1303;23907;-84
2023/01/31 07:59:32;;;;;;;3.10;0.80;;;;;;;;;;104746;1286;22565;-81
2023/01/31 08:09:22;;;;;;;6.60;1.30;;;;;;;;;;104066;1291;545812;-86
2023/01/31 08:11:58;;;;;;;12.50;2.10;;;;;;;;;;106163;1288;22795;-76
2023/01/31 08:14:35;;;;;;;13.60;1.80;;;;;;;;;;106073;1288;22539;-81
2023/01/31 08:17:11;;;;;;;6.70;1.30;;;;;;;;;;106043;1288;22612;-80
2023/01/31 08:19:50;;;;;;;6.60;0.80;;;;;;;;;;106071;1269;22549;-81
2023/01/31 08:22:22;;;;;;;5.80;0.80;;;;;;;;;;102489;1286;5079229;-82
2023/01/31 08:25:01;;;;;;;4.40;1.10;;;;;;;;;;106286;1286;25378;-80
2023/01/31 08:27:28;;;;;;;6.30;1.00;;;;;;;;;;109808;1287;22818;-75
2023/01/31 08:29:55;;;;;;;3.30;0.60;;;;;;;;;;109763;1269;22872;-75
2023/01/31 08:32:21;;;;;;;5.70;1.10;;;;;;;;;;109761;1288;22151;-75
2023/01/31 08:34:48;;;;;;;8.20;1.40;;;;;;;;;;109763;1287;22347;-75
2023/01/31 08:37:15;;;;;;;10.20;1.40;;;;;;;;;;109819;1287;22111;-76
2023/01/31 08:39:43;;;;;;;4.10;0.90;;;;;;;;;;109713;1265;22817;-75
2023/01/31 08:42:10;;;;;;;5.90;0.90;;;;;;;;;;109800;1288;22214;-75
2023/01/31 08:44:37;;;;;;;5.50;0.60;;;;;;;;;;109767;1288;22404;-76
2023/01/31 08:47:04;;;;;;;3.70;0.90;;;;;;;;;;109717;1287;22241;-76
2023/01/31 08:49:35;;;;;;;6.50;1.20;;;;;;;;;;109795;1266;22124;-76
2023/01/31 08:52:01;;;;;;;4.60;0.90;;;;;;;;;;110203;1278;22747;-75
2023/01/31 08:54:28;;;;;;;4.80;1.00;;;;;;;;;;110211;1278;22233;-75
2023/01/31 08:56:55;;;;;;;4.80;1.20;;;;;;;;;;110295;1278;22100;-75
2023/01/31 08:59:25;;;;;;;6.10;1.10;;;;;;;;;;110277;1261;22235;-76
2023/01/31 09:01:52;;;;;;;8.10;1.40;;;;;;;;;;110554;1276;22176;-76
2023/01/31 09:04:18;;;;;;;10.00;1.90;;;;;;;;;;110436;1276;22858;-76
2023/01/31 09:06:45;;;;;;;10.80;1.60;;;;;;;;;;110515;1269;22351;-76
2023/01/31 09:09:15;;;;;;;9.50;1.60;;;;;;;;;;110471;1257;22227;-77
2023/01/31 09:11:51;;;;;;;8.40;1.60;;;;;;;;;;110433;1276;21724;-76
2023/01/31 09:14:18;;;;;;;7.30;1.30;;;;;;;;;;110375;1276;22331;-79
2023/01/31 09:16:45;;;;;;;5.30;1.10;;;;;;;;;;110405;1270;22455;-76
2023/01/31 09:19:16;;;;;;;10.10;1.70;;;;;;;;;;110467;1258;22220;-76
2023/01/31 09:21:45;;;;;;;10.10;1.40;;;;;;;;;;110499;1272;22224;-76
2023/01/31 09:24:13;;;;;;;7.70;1.40;;;;;;;;;;110367;1276;22077;-77
2023/01/31 09:26:40;;;;;;;12.20;2.00;;;;;;;;;;110373;1278;22129;-77
2023/01/31 09:29:07;;;;;;;13.70;2.40;;;;;;;;;;110371;1255;22237;-77
2023/01/31 09:31:35;;;;;;;8.30;1.30;;;;;;;;;;110260;1278;22222;-77
2023/01/31 09:34:01;;;;;;;13.20;1.90;;;;;;;;;;110375;1278;22108;-77
2023/01/31 09:36:31;;;;;;;8.40;1.40;;;;;;;;;;110348;1272;22132;-77
2023/01/31 09:38:58;;;;;;;10.60;1.70;;;;;;;;;;110226;1278;22120;-77
2023/01/31 09:41:32;;;;;;;11.50;2.20;;;;;;;;;;110624;1260;22159;-78
2023/01/31 09:44:20;;;;;;;8.40;1.60;;;;;;;;;;110345;1278;22103;-77
2023/01/31 09:46:50;;;;;;;9.10;1.50;;;;;;;;;;110254;1278;22172;-77
2023/01/31 09:49:21;;;;;;;11.70;2.20;;;;;;;;;;110264;1278;22351;-78
2023/01/31 09:51:51;;;;;;;11.10;2.80;;;;;;;;;;110772;1256;22144;-77
2023/01/31 09:54:27;;;;;;;10.00;3.40;;;;;;;;;;110350;1278;22311;-77
2023/01/31 09:57:00;;;;;;;9.20;2.90;;;;;;;;;;110298;1278;22164;-77
2023/01/31 09:59:33;;;;;;;9.20;2.40;;;;;;;;;;110354;1278;22129;-78
2023/01/31 10:02:14;;;;;;;13.80;2.60;;;;;;;;;;110757;1258;22148;-77
2023/01/31 10:05:05;;;;;;;11.40;1.60;;;;;;;;;;110329;1278;22133;-77
2023/01/31 10:08:04;;;;;;;9.30;2.70;;;;;;;;;;110269;1278;22580;-76
2023/01/31 10:10:30;;;;;;;14.10;3.60;;;;;;;;;;110458;1258;22103;-77
2023/01/31 10:13:02;;;;;;;14.60;4.30;;;;;;;;;;110364;1278;22361;-78
2023/01/31 10:15:41;;;;;;;15.70;4.40;;;;;;;;;;110354;1278;22823;-78
2023/01/31 10:18:29;;;;;;;18.20;4.60;;;;;;;;;;110362;1278;22340;-77
2023/01/31 10:21:03;;;;;;;17.50;4.00;;;;;;;;;;110362;1260;22878;-77
2023/01/31 10:23:39;;;;;;;9.40;1.90;;;;;;;;;;110137;1278;22129;-75
2023/01/31 10:26:12;;;;;;;10.30;2.90;;;;;;;;;;110227;1278;22123;-76
2023/01/31 10:28:52;;;;;;;13.30;3.50;;;;;;;;;;110270;1278;22123;-75
2023/01/31 10:31:34;;;;;;;14.20;3.90;;;;;;;;;;110423;1258;22161;-75
2023/01/31 10:34:01;;;;;;;11.40;3.90;;;;;;;;;;110274;1278;22899;-75
2023/01/31 10:36:28;;;;;;;9.40;2.80;;;;;;;;;;110291;1278;22166;-77
2023/01/31 10:38:58;;;;;;;14.30;4.20;;;;;;;;;;110225;1278;23186;-77
2023/01/31 10:41:36;;;;;;;33.80;11.40;;;;;;;;;;110437;1259;22213;-76
2023/01/31 10:44:16;;;;;;;;;;;;;;;;;;;;;
2023/01/31 10:51:20;;;;;;;32.60;9.00;;;;;;;;;;110026;1263;22193;-75
2023/01/31 10:53:48;;;;;;;10.80;2.50;;;;;;;;;;110036;1283;22168;-77
2023/01/31 10:56:15;;;;;;;9.00;2.10;;;;;;;;;;110045;1283;22208;-76
2023/01/31 10:58:43;;;;;;;8.60;2.00;;;;;;;;;;110035;1282;22185;-76
2023/01/31 11:01:14;;;;;;;12.10;2.50;;;;;;;;;;110025;1259;22833;-76
2023/01/31 11:03:50;;;;;;;11.30;3.00;;;;;;;;;;110041;1282;22170;-76
2023/01/31 11:06:21;;;;;;;9.20;2.70;;;;;;;;;;110041;1282;22361;-77
2023/01/31 11:08:51;;;;;;;11.00;2.80;;;;;;;;;;109973;1283;22270;-76
2023/01/31 11:11:22;;;;;;;9.50;2.70;;;;;;;;;;110038;1259;22673;-77
2023/01/31 11:14:01;;;;;;;9.90;2.60;;;;;;;;;;109967;1283;22610;-76
2023/01/31 11:16:35;;;;;;;8.80;2.40;;;;;;;;;;110026;1283;22151;-76
2023/01/31 11:19:17;;;;;;;10.90;2.80;;;;;;;;;;109986;1282;22858;-76
2023/01/31 11:21:48;;;;;;;8.80;2.60;;;;;;;;;;110057;1263;22961;-76
2023/01/31 11:24:28;;;;;;;8.40;2.20;;;;;;;;;;110075;1280;22127;-76
2023/01/31 11:27:01;;;;;;;7.90;2.20;;;;;;;;;;110062;1280;22814;-76
2023/01/31 11:29:49;;;;;;;8.30;2.10;;;;;;;;;;110072;1280;22320;-77
2023/01/31 11:32:24;;;;;;;10.60;3.30;;;;;;;;;;110190;1260;22127;-76
2023/01/31 11:35:08;;;;;;;10.10;3.10;;;;;;;;;;110164;1279;22131;-76
2023/01/31 11:37:56;;;;;;;9.30;2.60;;;;;;;;;;110167;1279;22160;-77
2023/01/31 11:40:55;;;;;;;7.90;2.20;;;;;;;;;;110177;1279;22043;-77
2023/01/31 11:43:38;;;;;;;10.70;3.20;;;;;;;;;;110061;1263;22880;-76
2023/01/31 11:46:06;;;;;;;9.80;3.40;;;;;;;;;;110007;1282;22128;-76
2023/01/31 11:48:43;;;;;;;5.60;1.80;;;;;;;;;;110049;1281;22094;-76
2023/01/31 11:51:19;;;;;;;8.30;2.10;;;;;;;;;;110082;1281;22128;-76
2023/01/31 11:54:19;;;;;;;9.90;2.70;;;;;;;;;;110510;1261;22142;-77
2023/01/31 11:56:59;;;;;;;;;;;;;;;;;;;;;
2023/01/31 11:59:59;;;;;;;12.90;2.50;;;;;;;;;;110289;1279;22135;-77
2023/01/31 12:02:39;;;;;;;9.20;2.10;;;;;;;;;;110315;1260;22181;-77
2023/01/31 12:05:16;;;;;;;9.10;2.40;;;;;;;;;;110260;1279;21996;-76
2023/01/31 12:07:49;;;;;;;7.70;1.70;;;;;;;;;;110135;1279;22145;-77
2023/01/31 12:10:25;;;;;;;9.70;2.30;;;;;;;;;;110151;1279;22219;-76
2023/01/31 12:12:52;;;;;;;10.60;1.90;;;;;;;;;;110211;1262;22744;-77
2023/01/31 12:15:39;;;;;;;11.30;2.20;;;;;;;;;;110160;1279;22906;-77
2023/01/31 12:18:30;;;;;;;8.40;2.80;;;;;;;;;;110280;1275;22813;-77
2023/01/31 12:21:11;;;;;;;20.00;5.70;;;;;;;;;;110295;1279;22142;-77
2023/01/31 12:24:18;;;;;;;13.10;3.10;;;;;;;;;;110477;1260;22622;-77
2023/01/31 12:27:09;;;;;;;17.60;3.90;;;;;;;;;;110169;1280;22141;-77
2023/01/31 12:30:05;;;;;;;15.90;4.00;;;;;;;;;;109897;1286;22846;-78
2023/01/31 12:39:55;;;;;;;16.90;3.80;;;;;;;;;;109510;1292;22186;-77
2023/01/31 12:42:35;;;;;;;17.40;4.00;;;;;;;;;;109381;1291;22003;-78
2023/01/31 12:45:07;;;;;;;21.20;4.60;;;;;;;;;;109468;1273;22900;-76
2023/01/31 12:48:12;;;;;;;18.30;4.30;;;;;;;;;;109558;1291;22194;-77
2023/01/31 12:50:57;;;;;;;14.90;4.10;;;;;;;;;;108569;1298;22891;-77
2023/01/31 12:53:27;;;;;;;15.00;3.70;;;;;;;;;;108650;1299;22185;-77
2023/01/31 12:56:18;;;;;;;14.60;3.70;;;;;;;;;;108930;1276;22197;-77
2023/01/31 12:59:11;;;;;;;11.60;3.10;;;;;;;;;;108661;1299;23041;-76
2023/01/31 13:01:51;;;;;;;16.20;3.10;;;;;;;;;;108723;1298;22192;-76
2023/01/31 13:04:34;;;;;;;12.00;2.70;;;;;;;;;;108595;1298;22212;-75
2023/01/31 13:07:06;;;;;;;15.50;3.00;;;;;;;;;;108925;1279;22226;-76
2023/01/31 13:09:34;;;;;;;10.60;3.00;;;;;;;;;;109020;1295;22186;-77
2023/01/31 13:12:08;;;;;;;13.90;3.30;;;;;;;;;;109146;1289;21914;-77
2023/01/31 13:14:41;;;;;;;13.10;2.90;;;;;;;;;;109650;1285;22176;-77
2023/01/31 13:17:14;;;;;;;17.10;3.10;;;;;;;;;;109834;1269;22907;-75
2023/01/31 13:19:48;;;;;;;12.80;2.70;;;;;;;;;;109730;1286;22172;-76
2023/01/31 13:22:27;;;;;;;14.30;3.10;;;;;;;;;;109736;1288;22175;-76
2023/01/31 13:25:17;;;;;;;11.10;1.90;;;;;;;;;;109719;1288;22207;-77
2023/01/31 13:27:55;;;;;;;11.70;2.60;;;;;;;;;;110088;1268;22150;-77
2023/01/31 13:30:55;;;;;;;10.70;2.50;;;;;;;;;;110152;1280;22028;-77
2023/01/31 13:33:29;;;;;;;11.30;1.90;;;;;;;;;;109892;1285;22824;-77
2023/01/31 13:36:03;;;;;;;11.10;1.90;;;;;;;;;;109771;1262;22181;-77
2023/01/31 13:38:40;;;;;;;10.00;2.00;;;;;;;;;;109792;1285;22200;-77
2023/01/31 13:41:18;;;;;;;12.20;2.10;;;;;;;;;;109799;1285;22152;-77
2023/01/31 13:43:56;;;;;;;14.00;2.60;;;;;;;;;;109782;1286;22262;-77
2023/01/31 13:46:31;;;;;;;8.00;1.70;;;;;;;;;;109929;1266;22161;-75
2023/01/31 13:49:14;;;;;;;12.40;2.60;;;;;;;;;;109794;1285;22785;-77
2023/01/31 13:51:51;;;;;;;11.70;2.40;;;;;;;;;;109895;1285;22174;-76
2023/01/31 13:54:21;;;;;;;23.00;9.90;;;;;;;;;;109910;1285;22497;-77
2023/01/31 13:56:51;;;;;;;15.40;4.00;;;;;;;;;;109799;1268;22941;-76
2023/01/31 13:59:32;;;;;;;10.10;3.20;;;;;;;;;;109872;1285;22285;-76
2023/01/31 14:02:01;;;;;;;11.30;2.60;;;;;;;;;;109812;1286;22167;-77
2023/01/31 14:04:36;;;;;;;22.30;6.90;;;;;;;;;;109790;1285;22137;-76
2023/01/31 14:07:13;;;;;;;34.60;12.70;;;;;;;;;;109897;1267;22218;-76
2023/01/31 14:09:49;;;;;;;49.90;17.30;;;;;;;;;;110067;1280;22131;-76
2023/01/31 14:12:16;;;;;;;29.10;8.60;;;;;;;;;;110086;1280;22161;-76
2023/01/31 14:14:44;;;;;;;26.70;10.40;;;;;;;;;;110143;1280;22126;-76
2023/01/31 14:17:12;;;;;;;21.30;9.50;;;;;;;;;;110137;1262;22139;-80
2023/01/31 14:19:42;;;;;;;16.50;5.00;;;;;;;;;;110066;1280;22263;-76
2023/01/31 14:22:15;;;;;;;12.80;4.30;;;;;;;;;;110131;1280;22221;-76
2023/01/31 14:24:45;;;;;;;12.80;4.30;;;;;;;;;;110132;1281;22124;-77
2023/01/31 14:27:18;;;;;;;22.50;9.40;;;;;;;;;;110108;1262;22171;-76
2023/01/31 14:29:46;;;;;;;15.20;5.20;;;;;;;;;;110044;1281;22571;-76
2023/01/31 14:32:25;;;;;;;14.90;4.40;;;;;;;;;;110094;1281;22968;-76
2023/01/31 14:34:52;;;;;;;13.00;4.80;;;;;;;;;;110070;1281;22091;-77
2023/01/31 14:37:20;;;;;;;18.90;5.30;;;;;;;;;;110072;1260;22147;-80
2023/01/31 14:40:01;;;;;;;24.40;8.30;;;;;;;;;;110072;1281;22130;-77
2023/01/31 14:42:45;;;;;;;37.10;14.10;;;;;;;;;;110062;1281;22174;-77
2023/01/31 14:45:35;;;;;;;26.80;8.30;;;;;;;;;;110070;1281;22116;-77
2023/01/31 14:48:03;;;;;;;24.30;7.50;;;;;;;;;;110016;1262;22919;-77
2023/01/31 14:50:37;;;;;;;22.00;7.90;;;;;;;;;;110045;1281;22262;-78
2023/01/31 14:53:19;;;;;;;20.10;6.20;;;;;;;;;;110053;1281;22401;-77
2023/01/31 14:55:56;;;;;;;27.40;10.40;;;;;;;;;;110080;1281;22102;-77
2023/01/31 14:58:25;;;;;;;24.10;10.10;;;;;;;;;;110191;1261;22593;-77
2023/01/31 15:00:57;;;;;;;21.20;9.20;;;;;;;;;;110055;1281;22143;-77
2023/01/31 15:03:28;;;;;;;17.10;7.00;;;;;;;;;;109989;1281;23258;-77
2023/01/31 15:06:10;;;;;;;15.40;7.60;;;;;;;;;;110084;1281;22143;-77
2023/01/31 15:08:40;;;;;;;13.40;5.00;;;;;;;;;;110237;1262;22075;-77
2023/01/31 15:11:12;;;;;;;19.40;7.40;;;;;;;;;;110082;1281;22868;-77
2023/01/31 15:13:49;;;;;;;14.20;5.30;;;;;;;;;;110090;1281;22861;-76
2023/01/31 15:16:23;;;;;;;18.80;5.40;;;;;;;;;;110054;1281;22404;-78
2023/01/31 15:18:59;;;;;;;17.60;5.80;;;;;;;;;;110199;1262;22234;-77
2023/01/31 15:21:32;;;;;;;23.60;7.40;;;;;;;;;;110070;1281;22333;-77
2023/01/31 15:24:01;;;;;;;31.10;10.50;;;;;;;;;;110094;1281;22156;-78
2023/01/31 15:26:34;;;;;;;21.20;7.10;;;;;;;;;;110070;1281;22104;-77
2023/01/31 15:29:03;;;;;;;19.90;7.50;;;;;;;;;;110194;1263;22142;-77
2023/01/31 15:31:57;;;;;;;18.70;6.40;;;;;;;;;;110071;1281;22135;-78
2023/01/31 15:34:52;;;;;;;18.70;6.30;;;;;;;;;;110050;1281;22131;-77
2023/01/31 15:37:31;;;;;;;15.10;4.90;;;;;;;;;;110015;1281;22030;-79
2023/01/31 15:40:04;;;;;;;24.20;7.70;;;;;;;;;;110307;1265;22808;-78
2023/01/31 15:42:37;;;;;;;27.80;9.30;;;;;;;;;;110032;1281;22119;-77
2023/01/31 15:45:24;;;;;;;31.50;10.10;;;;;;;;;;110032;1281;22842;-77
2023/01/31 15:48:05;;;;;;;19.90;8.30;;;;;;;;;;110032;1281;22126;-76
2023/01/31 15:50:56;;;;;;;24.60;8.00;;;;;;;;;;110316;1265;22738;-78
2023/01/31 15:53:36;;;;;;;29.50;10.40;;;;;;;;;;109880;1285;22274;-76
2023/01/31 15:56:25;;;;;;;20.00;6.90;;;;;;;;;;109889;1285;23072;-77
2023/01/31 15:59:02;;;;;;;13.50;5.10;;;;;;;;;;109865;1263;22981;-77
2023/01/31 16:01:38;;;;;;;19.40;7.00;;;;;;;;;;109901;1285;22140;-78
2023/01/31 16:04:15;;;;;;;24.40;8.50;;;;;;;;;;109877;1286;22091;-77
2023/01/31 16:06:47;;;;;;;22.60;8.00;;;;;;;;;;109866;1285;22161;-76
2023/01/31 16:09:37;;;;;;;23.50;8.60;;;;;;;;;;109831;1268;22157;-77
2023/01/31 16:12:08;;;;;;;28.00;11.40;;;;;;;;;;109874;1286;22633;-77
2023/01/31 16:14:39;;;;;;;29.80;13.50;;;;;;;;;;109853;1285;22224;-76
2023/01/31 16:17:09;;;;;;;21.80;11.40;;;;;;;;;;109861;1286;22180;-77
2023/01/31 16:19:49;;;;;;;19.50;10.60;;;;;;;;;;109888;1265;22186;-76
2023/01/31 16:22:24;;;;;;;18.50;7.50;;;;;;;;;;109874;1286;22181;-77
2023/01/31 16:32:20;;;;;;;14.10;5.40;;;;;;;;;;104017;1302;545249;-82
2023/01/31 16:35:03;;;;;;;15.00;4.80;;;;;;;;;;106087;1280;22553;-77
2023/01/31 16:37:58;;;;;;;12.60;4.80;;;;;;;;;;106444;1280;22701;-80
2023/01/31 16:40:44;;;;;;;13.60;5.20;;;;;;;;;;106250;1280;25403;-76
2023/01/31 16:43:36;;;;;;;;;;;;;;;;;;;;;
2023/01/31 16:46:27;;;;;;;12.20;4.10;;;;;;;;;;103517;1276;4353936;-76
2023/01/31 16:49:27;;;;;;;13.20;4.60;;;;;;;;;;106758;1275;22539;-77
2023/01/31 16:52:26;;;;;;;17.80;8.40;;;;;;;;;;106643;1268;22524;-76
2023/01/31 16:55:19;;;;;;;11.00;3.50;;;;;;;;;;106708;1277;24202;-77
2023/01/31 16:58:05;;;;;;;;;;;;;;;;;;;;;
2023/01/31 17:01:22;;;;;;;;;;;;;;;;;;;;;
2023/01/31 17:04:07;;;;;;;11.50;3.90;;;;;;;;;;106712;1259;22773;-79
2023/01/31 17:06:35;;;;;;;11.10;3.90;;;;;;;;;;106701;1279;24348;-78
2023/01/31 17:09:28;;;;;;;11.10;3.30;;;;;;;;;;106460;1283;25472;-78
2023/01/31 17:12:18;;;;;;;13.90;3.90;;;;;;;;;;106242;1282;24363;-82
2023/01/31 17:22:09;;;;;;;12.20;4.50;;;;;;;;;;103725;1295;545191;-78
2023/01/31 17:24:47;;;;;;;7.30;3.20;;;;;;;;;;106071;1282;22665;-79
2023/01/31 17:27:26;;;;;;;7.50;2.50;;;;;;;;;;105860;1285;22599;-76
2023/01/31 17:29:53;;;;;;;9.80;3.50;;;;;;;;;;106133;1282;22556;-77
2023/01/31 17:32:28;;;;;;;9.90;3.20;;;;;;;;;;106083;1270;22559;-79
2023/01/31 17:35:19;;;;;;;6.60;2.20;;;;;;;;;;102382;1279;5126355;-80
2023/01/31 17:38:22;;;;;;;7.80;2.80;;;;;;;;;;105498;1288;25395;-77
2023/01/31 17:41:00;;;;;;;7.80;2.60;;;;;;;;;;105708;1270;24304;-79
2023/01/31 17:43:27;;;;;;;10.60;3.40;;;;;;;;;;105782;1285;23128;-79
2023/01/31 17:46:11;;;;;;;7.10;1.60;;;;;;;;;;105563;1287;22554;-78
2023/01/31 17:48:42;;;;;;;8.70;1.90;;;;;;;;;;105617;1287;24474;-77